createdAt,value
2022-10-19T05:01:30.350Z,10.27
2022-10-19T05:04:01.747Z,14.97
2022-10-19T05:06:30.509Z,14.10
2022-10-19T05:08:57.557Z,21.83
2022-10-19T05:11:25.264Z,15.07
2022-10-19T05:13:52.121Z,10.77
2022-10-19T05:16:22.084Z,9.38
2022-10-19T05:21:18.424Z,15.57
2022-10-19T05:23:45.616Z,13.82
2022-10-19T05:26:18.629Z,18.02
2022-10-19T05:28:49.820Z,14.02
2022-10-19T05:31:21.028Z,17.92
2022-10-19T05:33:47.707Z,11.68
2022-10-19T05:36:14.881Z,12.13
2022-10-19T05:38:42.234Z,11.65
2022-10-19T05:41:09.580Z,18.65
2022-10-19T05:43:36.886Z,15.13
2022-10-19T05:46:08.873Z,12.95
2022-10-19T05:48:36.360Z,17.70
2022-10-19T05:51:07.810Z,17.70
2022-10-19T05:53:35.809Z,20.52
2022-10-19T05:56:05.599Z,25.02
2022-10-19T05:58:33.065Z,16.58
2022-10-19T06:01:00.782Z,23.67
2022-10-19T06:03:28.166Z,22.90
2022-10-19T06:05:55.695Z,21.65
2022-10-19T06:08:24.111Z,24.90
2022-10-19T06:10:51.826Z,26.20
2022-10-19T06:13:19.782Z,23.00
2022-10-19T06:15:51.297Z,19.52
2022-10-19T06:18:17.890Z,31.17
2022-10-19T06:20:44.766Z,19.60
2022-10-19T06:23:11.623Z,22.45
2022-10-19T06:25:38.444Z,16.50
2022-10-19T06:28:05.673Z,20.23
2022-10-19T06:30:32.866Z,22.52
2022-10-19T06:33:00.201Z,24.35
2022-10-19T06:35:27.229Z,24.13
2022-10-19T06:37:56.264Z,22.92
2022-10-19T06:40:23.299Z,24.05
2022-10-19T06:42:50.011Z,21.48
2022-10-19T06:45:17.649Z,29.25
2022-10-19T06:47:44.244Z,29.02
2022-10-19T06:50:11.476Z,27.80
2022-10-19T06:52:38.205Z,26.73
2022-10-19T06:55:05.857Z,24.67
2022-10-19T06:57:32.718Z,24.35
2022-10-19T07:00:00.041Z,25.35
2022-10-19T07:02:26.585Z,21.67
2022-10-19T07:04:53.762Z,30.80
2022-10-19T07:07:20.532Z,28.20
2022-10-19T07:09:48.606Z,28.45
2022-10-19T07:12:15.282Z,28.88
2022-10-19T07:14:42.697Z,26.77
2022-10-19T07:17:11.764Z,29.52
2022-10-19T07:19:39.075Z,29.50
2022-10-19T07:22:06.001Z,31.60
2022-10-19T07:24:32.888Z,26.65
2022-10-19T07:26:59.494Z,32.55
2022-10-19T07:29:26.368Z,29.55
2022-10-19T07:31:52.939Z,32.92
2022-10-19T07:34:21.542Z,32.00
2022-10-19T07:36:49.841Z,28.58
2022-10-19T07:39:17.451Z,27.33
2022-10-19T07:41:44.668Z,32.25
2022-10-19T07:44:14.814Z,29.55
2022-10-19T07:46:42.789Z,29.58
2022-10-19T07:49:14.356Z,39.20
2022-10-19T07:51:41.084Z,30.77
2022-10-19T07:54:09.028Z,29.92
2022-10-19T07:56:35.666Z,26.35
2022-10-19T07:59:05.165Z,33.88
2022-10-19T08:01:41.254Z,185.98
2022-10-19T08:06:55.415Z,166.13
2022-10-19T08:09:50.822Z,78.05
2022-10-19T08:12:14.586Z,41.03
2022-10-19T08:14:42.541Z,38.03
2022-10-19T08:17:11.764Z,40.42
2022-10-19T08:19:43.665Z,42.30
2022-10-19T08:22:10.995Z,44.05
2022-10-19T08:24:38.682Z,29.08
2022-10-19T08:27:05.355Z,26.98
2022-10-19T08:29:32.636Z,75.50
2022-10-19T08:31:59.735Z,71.78
2022-10-19T08:34:27.093Z,29.90
2022-10-19T08:36:53.622Z,13.93
2022-10-19T08:39:20.755Z,18.67
2022-10-19T08:42:03.905Z,18.70
2022-10-19T08:44:49.531Z,29.30
2022-10-19T08:47:35.567Z,23.90
2022-10-19T08:50:03.941Z,140.65
2022-10-19T08:52:36.863Z,184.80
2022-10-19T08:55:14.008Z,61.42
2022-10-19T08:58:04.726Z,47.67
2022-10-19T09:00:41.221Z,17.52
2022-10-19T09:04:02.288Z,14.13
2022-10-19T09:06:37.618Z,66.88
2022-10-19T09:09:06.151Z,8.07
2022-10-19T09:11:38.925Z,9.57
2022-10-19T09:14:15.203Z,9.68
2022-10-19T09:16:42.535Z,6.20
2022-10-19T09:19:22.200Z,9.02
2022-10-19T09:21:55.400Z,18.63
2022-10-19T09:24:43.131Z,10.65
2022-10-19T09:27:30.053Z,10.15
2022-10-19T09:29:59.609Z,8.98
2022-10-19T09:32:36.871Z,58.78
2022-10-19T09:35:18.243Z,48.63
2022-10-19T09:37:48.372Z,9.02
2022-10-19T09:40:27.976Z,7.00
2022-10-19T09:42:58.832Z,6.78
2022-10-19T09:45:35.422Z,11.68
2022-10-19T09:48:16.634Z,18.20
2022-10-19T09:50:45.521Z,8.95
2022-10-19T09:53:19.727Z,5.88
2022-10-19T09:56:00.198Z,6.47
2022-10-19T09:58:32.122Z,4.43
2022-10-19T10:01:01.924Z,6.72
2022-10-19T10:03:31.896Z,11.07
2022-10-19T10:06:04.445Z,5.60
2022-10-19T10:08:33.955Z,7.10
2022-10-19T10:11:38.380Z,9.43
2022-10-19T10:14:31.959Z,14.00
2022-10-19T10:17:03.932Z,9.43
2022-10-19T10:19:33.789Z,3.85
2022-10-19T10:22:02.942Z,17.67
2022-10-19T10:24:32.990Z,6.65
2022-10-19T10:27:03.063Z,3.97
2022-10-19T10:29:35.449Z,3.00
2022-10-19T10:32:05.995Z,6.22
2022-10-19T10:34:50.203Z,9.82
2022-10-19T10:37:44.028Z,12.98
2022-10-19T10:40:26.389Z,9.50
2022-10-19T10:42:55.136Z,6.88
2022-10-19T10:45:46.949Z,7.93
2022-10-19T10:48:32.187Z,9.07
2022-10-19T10:51:01.472Z,7.97
2022-10-19T10:53:32.567Z,5.30
2022-10-19T10:55:59.194Z,5.20
2022-10-19T10:58:39.354Z,7.28
2022-10-19T11:01:15.314Z,4.97
2022-10-19T11:03:51.191Z,9.27
2022-10-19T11:09:24.742Z,3.95
2022-10-19T11:11:55.903Z,9.60
2022-10-19T11:14:44.862Z,8.50
2022-10-19T11:17:23.932Z,5.63
2022-10-19T11:19:51.712Z,7.32
2022-10-19T11:22:57.641Z,7.28
2022-10-19T11:25:57.296Z,5.22
2022-10-19T11:28:56.656Z,6.07
2022-10-19T11:31:51.589Z,7.57
2022-10-19T11:34:54.284Z,6.78
2022-10-19T11:37:49.979Z,6.40
2022-10-19T11:40:54.234Z,4.63
2022-10-19T11:43:54.251Z,6.97
2022-10-19T11:46:42.655Z,7.47
2022-10-19T11:49:18.851Z,6.00
2022-10-19T11:51:59.653Z,4.30
2022-10-19T11:54:35.369Z,3.72
2022-10-19T11:57:20.347Z,8.43
2022-10-19T12:00:15.022Z,9.55
2022-10-19T12:02:59.406Z,8.23
2022-10-19T12:05:34.344Z,9.10
2022-10-19T12:11:09.355Z,11.75
2022-10-19T12:13:47.242Z,11.07
2022-10-19T12:16:15.356Z,7.90
2022-10-19T12:18:46.986Z,7.78
2022-10-19T12:21:27.115Z,3.72
2022-10-19T12:23:54.921Z,9.18
2022-10-19T12:26:22.330Z,10.52
2022-10-19T12:28:55.846Z,4.55
2022-10-19T12:31:24.773Z,5.93
2022-10-19T12:34:03.974Z,7.53
2022-10-19T12:36:49.968Z,9.80
2022-10-19T12:39:55.204Z,3.08
2022-10-19T12:42:33.404Z,15.52
2022-10-19T12:45:25.558Z,4.22
2022-10-19T12:48:13.018Z,8.23
2022-10-19T12:50:48.987Z,6.72
2022-10-19T12:56:26.288Z,5.65
2022-10-19T12:59:03.073Z,2.97
2022-10-19T13:01:36.307Z,3.97
2022-10-19T13:04:13.073Z,5.03
2022-10-19T13:06:56.735Z,7.35
2022-10-19T13:09:44.990Z,5.57
2022-10-19T13:12:21.648Z,4.18
2022-10-19T13:15:02.345Z,4.85
2022-10-19T13:17:37.931Z,5.15
2022-10-19T13:20:14.053Z,120.43
2022-10-19T13:22:59.362Z,9.82
2022-10-19T13:25:33.955Z,8.38
2022-10-19T13:28:06.646Z,8.43
2022-10-19T13:30:36.693Z,9.70
2022-10-19T13:33:34.851Z,9.88
2022-10-19T13:36:02.750Z,5.90
2022-10-19T13:41:26.648Z,6.38
2022-10-19T13:44:16.323Z,8.48
2022-10-19T13:47:01.224Z,4.95
2022-10-19T13:49:30.363Z,11.43
2022-10-19T13:52:37.383Z,7.18
2022-10-19T13:55:28.795Z,5.18
2022-10-19T13:58:16.144Z,5.93
2022-10-19T14:01:16.610Z,5.95
2022-10-19T14:04:10.179Z,6.25
2022-10-19T14:06:44.107Z,11.30
2022-10-19T14:09:21.874Z,7.30
2022-10-19T14:11:52.627Z,8.32
2022-10-19T14:14:23.133Z,13.88
2022-10-19T14:16:51.907Z,7.55
2022-10-19T14:19:27.502Z,4.75
2022-10-19T14:21:59.374Z,7.22
2022-10-19T14:24:36.099Z,7.57
2022-10-19T14:27:07.503Z,4.30
2022-10-19T14:29:45.210Z,6.18
2022-10-19T14:32:12.152Z,7.47
2022-10-19T14:34:47.284Z,12.30
2022-10-19T14:37:18.595Z,8.52
2022-10-19T14:40:02.007Z,9.30
2022-10-19T14:42:46.113Z,9.18
2022-10-19T14:45:22.829Z,5.90
2022-10-19T14:47:52.681Z,5.63
2022-10-19T14:50:23.696Z,6.75
2022-10-19T14:52:57.575Z,6.05
2022-10-19T14:55:28.115Z,8.07
2022-10-19T14:57:54.859Z,7.18
2022-10-19T15:00:24.112Z,8.13
2022-10-19T15:03:03.956Z,11.85
2022-10-19T15:05:37.054Z,10.35
2022-10-19T15:08:09.781Z,7.88
2022-10-19T15:10:46.044Z,7.43
2022-10-19T15:13:24.323Z,8.75
2022-10-19T15:15:53.365Z,5.70
2022-10-19T15:18:44.023Z,5.53
2022-10-19T15:21:18.413Z,9.73
2022-10-19T15:23:50.637Z,6.43
2022-10-19T15:26:26.661Z,6.80
2022-10-19T15:28:55.382Z,10.43
2022-10-19T15:32:00.807Z,9.77
2022-10-19T15:34:31.086Z,6.93
2022-10-19T15:37:01.183Z,9.43
2022-10-19T15:39:40.927Z,9.60
2022-10-19T15:42:35.455Z,6.80
2022-10-19T15:45:03.830Z,10.10
2022-10-19T15:47:31.111Z,6.85
2022-10-19T15:50:00.143Z,4.88
2022-10-19T15:52:33.638Z,11.88
2022-10-19T15:55:01.103Z,6.28
2022-10-19T15:57:33.228Z,10.93
2022-10-19T16:00:13.529Z,6.80
2022-10-19T16:02:41.239Z,9.60
2022-10-19T16:05:09.151Z,9.38
2022-10-19T16:07:39.558Z,9.70
2022-10-19T16:10:07.593Z,6.35
2022-10-19T16:12:34.867Z,5.55
2022-10-19T16:15:01.444Z,5.78
2022-10-19T16:17:28.677Z,9.15
2022-10-19T16:19:55.247Z,7.32
2022-10-19T16:22:22.484Z,4.30
2022-10-19T16:24:49.331Z,7.05
2022-10-19T16:27:17.348Z,12.52
2022-10-19T16:29:44.661Z,9.25
2022-10-19T16:32:12.215Z,8.32
2022-10-19T16:34:38.892Z,8.50
2022-10-19T16:37:07.150Z,8.07
2022-10-19T16:39:34.539Z,6.85
2022-10-19T16:42:01.597Z,4.45
2022-10-19T16:44:28.134Z,9.90
2022-10-19T16:46:59.724Z,11.88
2022-10-19T16:49:26.832Z,5.97
2022-10-19T16:51:57.194Z,10.10
2022-10-19T16:54:26.579Z,9.63
2022-10-19T16:56:53.601Z,10.30
2022-10-19T16:59:20.180Z,10.90
2022-10-19T17:01:47.983Z,14.10
2022-10-19T17:04:17.285Z,11.93
2022-10-19T17:06:44.645Z,10.93
2022-10-19T17:11:58.372Z,11.88
2022-10-19T17:14:24.940Z,11.40
2022-10-19T17:16:52.128Z,9.13
2022-10-19T17:19:18.749Z,8.75
2022-10-19T17:21:45.321Z,9.68
2022-10-19T17:24:21.634Z,7.60
2022-10-19T17:26:51.209Z,6.95
2022-10-19T17:29:18.032Z,9.93
2022-10-19T17:31:45.408Z,11.93
2022-10-19T17:34:12.073Z,9.02
2022-10-19T17:36:41.850Z,9.13
2022-10-19T17:39:12.970Z,7.55
2022-10-19T17:41:39.529Z,4.30
2022-10-19T17:44:06.461Z,7.18
2022-10-19T17:46:34.975Z,7.28
2022-10-19T17:49:02.809Z,11.48
2022-10-19T17:51:31.914Z,16.33
2022-10-19T17:54:01.049Z,8.63
2022-10-19T17:56:27.962Z,11.55
2022-10-19T17:58:56.697Z,7.72
2022-10-19T18:01:24.326Z,7.47
2022-10-19T18:03:51.625Z,14.60
2022-10-19T18:06:21.683Z,11.07
2022-10-19T18:08:52.129Z,7.13
2022-10-19T18:11:27.798Z,8.75
2022-10-19T18:13:56.891Z,8.00
2022-10-19T18:16:31.825Z,9.07
2022-10-19T18:19:00.321Z,10.48
2022-10-19T18:21:34.375Z,9.93
2022-10-19T18:24:02.218Z,8.00
2022-10-19T18:26:32.394Z,10.15
2022-10-19T18:29:00.753Z,9.50
2022-10-19T18:31:29.491Z,6.57
2022-10-19T18:34:00.403Z,6.82
2022-10-19T18:36:27.355Z,9.25
2022-10-19T18:38:56.595Z,15.52
2022-10-19T18:41:23.736Z,5.55
2022-10-19T18:43:56.060Z,10.85
2022-10-19T18:46:23.748Z,6.25
2022-10-19T18:48:51.231Z,11.32
2022-10-19T18:51:19.549Z,4.63
2022-10-19T18:53:47.603Z,6.53
2022-10-19T18:56:16.804Z,10.98
2022-10-19T18:58:44.745Z,7.05
2022-10-19T19:01:20.414Z,10.05
2022-10-19T19:03:52.071Z,6.32
2022-10-19T19:06:22.555Z,8.10
2022-10-19T19:08:49.527Z,6.85
2022-10-19T19:11:18.868Z,8.55
2022-10-19T19:13:57.408Z,8.30
2022-10-19T19:16:24.957Z,6.43
2022-10-19T19:18:51.580Z,4.45
2022-10-19T19:21:30.065Z,6.75
2022-10-19T19:24:00.156Z,8.77
2022-10-19T19:26:31.189Z,8.82
2022-10-19T19:28:58.064Z,4.63
2022-10-19T19:31:25.924Z,6.88
2022-10-19T19:33:52.548Z,11.45
2022-10-19T19:36:20.352Z,9.63
2022-10-19T19:38:48.921Z,10.70
2022-10-19T19:41:16.284Z,7.75
2022-10-19T19:43:43.665Z,6.97
2022-10-19T19:46:16.540Z,6.70
2022-10-19T19:48:45.956Z,4.82
2022-10-19T19:53:41.999Z,4.78
2022-10-19T19:56:11.261Z,7.32
2022-10-19T19:58:39.812Z,6.13
2022-10-19T20:01:20.373Z,8.63
2022-10-19T20:03:47.788Z,6.03
2022-10-19T20:06:20.829Z,6.50
2022-10-19T20:08:50.371Z,3.67
2022-10-19T20:11:17.902Z,5.38
2022-10-19T20:13:45.618Z,6.63
2022-10-19T20:16:16.285Z,5.13
2022-10-19T20:18:48.634Z,4.93
2022-10-19T20:21:17.695Z,6.03
2022-10-19T20:23:45.838Z,9.07
2022-10-19T20:26:16.963Z,5.32
2022-10-19T20:28:43.868Z,6.07
